Terminal Aerodrome Forecast
Issued by NWS

Current Version | Previous Version | Text Only | Print | Product List | Glossary On
Versions: 1 2 3 4 5 6 7 8 9 10 11 12 13 14 15 16 17 18 19 20 21 22 23 24 25 26 27 28 29 30 31 32
000
FTUS45 KGJT 011120
TAFEGE
TAF
KEGE 011120Z 0112/0212 00000KT P6SM FEW200
     FM011900 25010KT P6SM SCT090 SCT120 BKN200
     FM020200 13005KT P6SM SCT110 SCT200
      AMD LTD TO CLD VIS AND WIND TIL 011300=

USA.gov is the U.S. government's official web portal to all federal, state and local government web resources and services.